sensor_id;sensor_type;location;lat;lon;timestamp;pressure;altitude;pressure_sealevel;temperature;humidity
19672;BME280;9983;51.114;13.788;2022-08-24T00:02:05;99693.84;;;20.65;100.00
19672;BME280;9983;51.114;13.788;2022-08-24T00:07:06;99708.41;;;20.71;100.00
19672;BME280;9983;51.114;13.788;2022-08-24T00:12:08;99702.00;;;20.24;100.00
19672;BME280;9983;51.114;13.788;2022-08-24T00:17:08;99700.09;;;20.24;100.00
19672;BME280;9983;51.114;13.788;2022-08-24T00:22:08;99707.16;;;20.43;100.00
19672;BME280;9983;51.114;13.788;2022-08-24T00:27:09;99708.41;;;20.71;100.00
19672;BME280;9983;51.114;13.788;2022-08-24T00:32:10;99702.91;;;20.48;100.00
19672;BME280;9983;51.114;13.788;2022-08-24T00:37:10;99694.66;;;20.66;100.00
19672;BME280;9983;51.114;13.788;2022-08-24T00:42:11;99702.97;;;20.71;100.00
19672;BME280;9983;51.114;13.788;2022-08-24T00:47:17;99708.38;;;20.48;100.00
19672;BME280;9983;51.114;13.788;2022-08-24T00:52:23;99694.22;;;20.92;100.00
19672;BME280;9983;51.114;13.788;2022-08-24T00:57:29;99695.25;;;20.68;100.00
19672;BME280;9983;51.114;13.788;2022-08-24T01:02:32;99696.88;;;20.45;100.00
19672;BME280;9983;51.114;13.788;2022-08-24T01:07:33;99697.03;;;20.74;100.00
19672;BME280;9983;51.114;13.788;2022-08-24T01:12:35;99701.53;;;20.57;100.00
19672;BME280;9983;51.114;13.788;2022-08-24T01:17:37;99705.84;;;20.99;100.00
19672;BME280;9983;51.114;13.788;2022-08-24T01:23:06;99711.50;;;20.86;100.00
19672;BME280;9983;51.114;13.788;2022-08-24T01:28:14;99702.41;;;20.92;100.00
19672;BME280;9983;51.114;13.788;2022-08-24T01:33:25;99701.81;;;20.37;100.00
19672;BME280;9983;51.114;13.788;2022-08-24T01:38:26;99698.81;;;20.57;100.00
19672;BME280;9983;51.114;13.788;2022-08-24T01:43:27;99699.97;;;20.19;100.00
19672;BME280;9983;51.114;13.788;2022-08-24T01:48:27;99698.56;;;20.58;100.00
19672;BME280;9983;51.114;13.788;2022-08-24T01:53:28;99691.19;;;20.59;100.00
19672;BME280;9983;51.114;13.788;2022-08-24T01:58:28;99688.97;;;20.79;100.00
19672;BME280;9983;51.114;13.788;2022-08-24T02:03:29;99686.56;;;20.59;100.00
19672;BME280;9983;51.114;13.788;2022-08-24T02:08:30;99688.47;;;20.59;100.00
19672;BME280;9983;51.114;13.788;2022-08-24T02:13:36;99695.94;;;19.92;100.00
19672;BME280;9983;51.114;13.788;2022-08-24T02:18:37;99685.28;;;20.20;100.00
19672;BME280;9983;51.114;13.788;2022-08-24T02:23:41;99690.00;;;20.13;100.00
19672;BME280;9983;51.114;13.788;2022-08-24T02:28:42;99676.41;;;20.55;100.00
19672;BME280;9983;51.114;13.788;2022-08-24T02:33:42;99680.66;;;20.51;100.00
19672;BME280;9983;51.114;13.788;2022-08-24T02:38:42;99689.22;;;20.24;100.00
19672;BME280;9983;51.114;13.788;2022-08-24T02:43:43;99686.16;;;20.32;100.00
19672;BME280;9983;51.114;13.788;2022-08-24T02:48:44;99700.31;;;19.93;100.00
19672;BME280;9983;51.114;13.788;2022-08-24T02:53:44;99708.44;;;20.11;100.00
19672;BME280;9983;51.114;13.788;2022-08-24T02:58:45;99702.09;;;19.87;100.00
19672;BME280;9983;51.114;13.788;2022-08-24T03:03:45;99717.59;;;19.68;100.00
19672;BME280;9983;51.114;13.788;2022-08-24T03:08:46;99704.09;;;19.92;100.00
19672;BME280;9983;51.114;13.788;2022-08-24T03:13:46;99715.63;;;19.76;100.00
19672;BME280;9983;51.114;13.788;2022-08-24T03:18:46;99716.66;;;19.93;100.00
19672;BME280;9983;51.114;13.788;2022-08-24T03:23:46;99714.13;;;19.80;100.00
19672;BME280;9983;51.114;13.788;2022-08-24T03:28:47;99715.97;;;19.06;100.00
19672;BME280;9983;51.114;13.788;2022-08-24T03:33:47;99727.38;;;19.15;100.00
19672;BME280;9983;51.114;13.788;2022-08-24T03:38:48;99731.53;;;18.92;100.00
19672;BME280;9983;51.114;13.788;2022-08-24T03:43:49;99730.69;;;19.35;100.00
19672;BME280;9983;51.114;13.788;2022-08-24T03:48:49;99732.53;;;19.23;100.00
19672;BME280;9983;51.114;13.788;2022-08-24T03:53:50;99739.91;;;19.34;100.00
19672;BME280;9983;51.114;13.788;2022-08-24T03:58:51;99747.59;;;19.19;100.00
19672;BME280;9983;51.114;13.788;2022-08-24T04:03:51;99750.03;;;19.27;100.00
19672;BME280;9983;51.114;13.788;2022-08-24T04:08:53;99747.34;;;19.45;100.00
19672;BME280;9983;51.114;13.788;2022-08-24T04:13:56;99751.31;;;19.49;100.00
19672;BME280;9983;51.114;13.788;2022-08-24T04:18:57;99757.72;;;19.55;100.00
19672;BME280;9983;51.114;13.788;2022-08-24T04:23:57;99747.09;;;19.28;100.00
19672;BME280;9983;51.114;13.788;2022-08-24T04:28:58;99743.13;;;19.67;100.00
19672;BME280;9983;51.114;13.788;2022-08-24T04:33:58;99744.91;;;19.37;100.00
19672;BME280;9983;51.114;13.788;2022-08-24T04:38:59;99747.09;;;19.28;100.00
19672;BME280;9983;51.114;13.788;2022-08-24T04:44:00;99749.69;;;19.17;100.00
19672;BME280;9983;51.114;13.788;2022-08-24T04:49:00;99747.34;;;19.45;100.00
19672;BME280;9983;51.114;13.788;2022-08-24T04:54:01;99753.56;;;19.52;100.00
19672;BME280;9983;51.114;13.788;2022-08-24T04:59:01;99766.94;;;19.90;100.00
19672;BME280;9983;51.114;13.788;2022-08-24T05:04:03;99765.50;;;19.69;100.00
19672;BME280;9983;51.114;13.788;2022-08-24T05:09:04;99769.25;;;20.05;100.00
19672;BME280;9983;51.114;13.788;2022-08-24T05:14:05;99772.69;;;20.30;100.00
19672;BME280;9983;51.114;13.788;2022-08-24T05:19:06;99772.19;;;20.52;100.00
19672;BME280;9983;51.114;13.788;2022-08-24T05:24:06;99768.47;;;20.34;100.00
19672;BME280;9983;51.114;13.788;2022-08-24T05:29:06;99775.47;;;20.72;100.00
19672;BME280;9983;51.114;13.788;2022-08-24T05:34:07;99788.75;;;20.80;100.00
19672;BME280;9983;51.114;13.788;2022-08-24T05:39:10;99788.84;;;20.43;100.00
19672;BME280;9983;51.114;13.788;2022-08-24T05:44:13;99792.09;;;20.52;100.00
19672;BME280;9983;51.114;13.788;2022-08-24T05:49:14;99790.34;;;20.58;100.00
19672;BME280;9983;51.114;13.788;2022-08-24T05:54:15;99797.53;;;20.82;100.00
19672;BME280;9983;51.114;13.788;2022-08-24T05:59:15;99800.94;;;20.77;100.00
19672;BME280;9983;51.114;13.788;2022-08-24T06:04:17;99797.28;;;20.95;100.00
19672;BME280;9983;51.114;13.788;2022-08-24T06:09:17;99796.59;;;21.11;100.00
19672;BME280;9983;51.114;13.788;2022-08-24T06:14:17;99801.59;;;21.14;100.00
19672;BME280;9983;51.114;13.788;2022-08-24T06:19:18;99800.22;;;21.24;100.00
19672;BME280;9983;51.114;13.788;2022-08-24T06:24:19;99795.47;;;21.31;100.00
19672;BME280;9983;51.114;13.788;2022-08-24T06:29:39;99798.22;;;21.42;100.00
19672;BME280;9983;51.114;13.788;2022-08-24T06:34:39;99790.84;;;21.43;100.00
19672;BME280;9983;51.114;13.788;2022-08-24T06:39:40;99795.72;;;21.41;100.00
19672;BME280;9983;51.114;13.788;2022-08-24T06:44:40;99802.22;;;21.63;100.00
19672;BME280;9983;51.114;13.788;2022-08-24T06:49:40;99801.84;;;21.71;100.00
19672;BME280;9983;51.114;13.788;2022-08-24T06:54:41;99813.31;;;21.96;100.00
19672;BME280;9983;51.114;13.788;2022-08-24T06:59:42;99824.59;;;22.12;100.00
19672;BME280;9983;51.114;13.788;2022-08-24T07:04:43;99816.25;;;22.18;100.00
19672;BME280;9983;51.114;13.788;2022-08-24T07:09:44;99828.34;;;22.34;100.00
19672;BME280;9983;51.114;13.788;2022-08-24T07:14:44;99824.50;;;22.75;100.00
19672;BME280;9983;51.114;13.788;2022-08-24T07:19:45;99822.94;;;22.96;100.00
19672;BME280;9983;51.114;13.788;2022-08-24T07:24:45;99826.34;;;23.20;100.00
19672;BME280;9983;51.114;13.788;2022-08-24T07:29:45;99831.00;;;23.53;100.00
19672;BME280;9983;51.114;13.788;2022-08-24T07:34:46;99829.34;;;23.68;100.00
19672;BME280;9983;51.114;13.788;2022-08-24T07:39:46;99836.16;;;23.66;100.00
19672;BME280;9983;51.114;13.788;2022-08-24T07:44:46;99829.81;;;23.82;100.00
19672;BME280;9983;51.114;13.788;2022-08-24T07:49:46;99830.59;;;23.99;100.00
19672;BME280;9983;51.114;13.788;2022-08-24T07:54:47;99837.22;;;24.03;100.00
19672;BME280;9983;51.114;13.788;2022-08-24T07:59:48;99844.16;;;24.11;100.00
19672;BME280;9983;51.114;13.788;2022-08-24T08:04:48;99849.03;;;24.26;100.00
19672;BME280;9983;51.114;13.788;2022-08-24T08:09:48;99840.75;;;24.42;100.00
19672;BME280;9983;51.114;13.788;2022-08-24T08:14:49;99851.38;;;24.39;100.00
19672;BME280;9983;51.114;13.788;2022-08-24T08:19:49;99845.91;;;24.39;100.00
19672;BME280;9983;51.114;13.788;2022-08-24T08:24:49;99854.31;;;24.54;100.00
19672;BME280;9983;51.114;13.788;2022-08-24T08:29:49;99848.91;;;24.59;100.00
19672;BME280;9983;51.114;13.788;2022-08-24T08:34:50;99855.16;;;24.81;100.00
19672;BME280;9983;51.114;13.788;2022-08-24T08:39:50;99861.78;;;24.85;100.00
19672;BME280;9983;51.114;13.788;2022-08-24T08:50:17;99850.81;;;25.12;100.00
19672;BME280;9983;51.114;13.788;2022-08-24T09:00:44;99854.75;;;25.58;98.98
19672;BME280;9983;51.114;13.788;2022-08-24T09:06:03;99851.38;;;25.14;96.56
19672;BME280;9983;51.114;13.788;2022-08-24T09:21:59;99847.44;;;25.37;93.59
19672;BME280;9983;51.114;13.788;2022-08-24T09:27:25;99854.03;;;25.36;94.70
19672;BME280;9983;51.114;13.788;2022-08-24T09:32:36;99851.31;;;25.73;92.74
19672;BME280;9983;51.114;13.788;2022-08-24T10:03:34;99831.56;;;26.28;86.27
19672;BME280;9983;51.114;13.788;2022-08-24T10:14:40;99827.75;;;26.39;84.65
19672;BME280;9983;51.114;13.788;2022-08-24T10:20:08;99837.22;;;26.74;83.69
19672;BME280;9983;51.114;13.788;2022-08-24T10:25:34;99832.28;;;26.76;80.86
19672;BME280;9983;51.114;13.788;2022-08-24T10:47:21;99828.47;;;27.07;80.00
19672;BME280;9983;51.114;13.788;2022-08-24T10:57:42;99828.19;;;27.54;76.24
19672;BME280;9983;51.114;13.788;2022-08-24T11:02:49;99825.72;;;27.53;76.89
19672;BME280;9983;51.114;13.788;2022-08-24T11:08:05;99831.50;;;27.56;74.56
19672;BME280;9983;51.114;13.788;2022-08-24T11:13:20;99832.88;;;27.34;76.81
19672;BME280;9983;51.114;13.788;2022-08-24T11:18:21;99829.88;;;27.35;77.77
19672;BME280;9983;51.114;13.788;2022-08-24T11:23:24;99830.13;;;27.39;76.15
19672;BME280;9983;51.114;13.788;2022-08-24T11:29:00;99824.34;;;28.50;70.51
19672;BME280;9983;51.114;13.788;2022-08-24T11:34:15;99827.00;;;28.65;70.08
19672;BME280;9983;51.114;13.788;2022-08-24T11:44:40;99834.38;;;30.30;65.00
19672;BME280;9983;51.114;13.788;2022-08-24T11:49:59;99822.84;;;29.75;63.72
19672;BME280;9983;51.114;13.788;2022-08-24T12:00:58;99822.88;;;29.07;64.73
19672;BME280;9983;51.114;13.788;2022-08-24T12:06:26;99823.88;;;28.82;66.21
19672;BME280;9983;51.114;13.788;2022-08-24T12:11:36;99821.78;;;29.71;62.01
19672;BME280;9983;51.114;13.788;2022-08-24T12:16:51;99814.69;;;31.30;59.10
19672;BME280;9983;51.114;13.788;2022-08-24T12:21:58;99802.88;;;32.39;55.19
19672;BME280;9983;51.114;13.788;2022-08-24T12:27:05;99807.19;;;32.31;55.39
19672;BME280;9983;51.114;13.788;2022-08-24T12:33:07;99815.81;;;31.61;56.09
19672;BME280;9983;51.114;13.788;2022-08-24T12:43:41;99806.78;;;30.25;59.38
19672;BME280;9983;51.114;13.788;2022-08-24T12:48:58;99800.38;;;30.48;61.18
19672;BME280;9983;51.114;13.788;2022-08-24T12:59:39;99810.00;;;30.32;60.62
19672;BME280;9983;51.114;13.788;2022-08-24T13:04:55;99795.22;;;29.99;59.25
19672;BME280;9983;51.114;13.788;2022-08-24T13:15:18;99809.84;;;29.47;61.09
19672;BME280;9983;51.114;13.788;2022-08-24T13:25:24;99798.25;;;29.73;61.75
19672;BME280;9983;51.114;13.788;2022-08-24T13:30:31;99797.84;;;29.85;62.44
19672;BME280;9983;51.114;13.788;2022-08-24T13:35:52;99798.09;;;30.55;59.62
19672;BME280;9983;51.114;13.788;2022-08-24T13:41:04;99794.19;;;30.93;57.73
19672;BME280;9983;51.114;13.788;2022-08-24T13:46:13;99794.06;;;30.66;58.10
19672;BME280;9983;51.114;13.788;2022-08-24T14:02:08;99786.97;;;30.17;60.53
19672;BME280;9983;51.114;13.788;2022-08-24T14:07:20;99793.88;;;29.43;62.50
19672;BME280;9983;51.114;13.788;2022-08-24T14:38:05;99783.88;;;28.80;66.72
19672;BME280;9983;51.114;13.788;2022-08-24T14:43:22;99780.75;;;28.47;66.40
19672;BME280;9983;51.114;13.788;2022-08-24T14:48:36;99773.59;;;28.46;66.08
19672;BME280;9983;51.114;13.788;2022-08-24T14:54:05;99770.63;;;28.82;66.33
19672;BME280;9983;51.114;13.788;2022-08-24T14:59:14;99769.47;;;28.88;66.10
19672;BME280;9983;51.114;13.788;2022-08-24T15:04:25;99765.19;;;29.05;66.05
19672;BME280;9983;51.114;13.788;2022-08-24T15:09:31;99763.47;;;28.81;67.22
19672;BME280;9983;51.114;13.788;2022-08-24T15:14:40;99749.66;;;29.91;61.23
19672;BME280;9983;51.114;13.788;2022-08-24T15:19:50;99745.03;;;30.53;62.19
19672;BME280;9983;51.114;13.788;2022-08-24T15:25:09;99733.66;;;32.56;54.16
19672;BME280;9983;51.114;13.788;2022-08-24T15:35:29;99742.16;;;34.45;46.96
19672;BME280;9983;51.114;13.788;2022-08-24T15:40:30;99749.69;;;34.71;46.83
19672;BME280;9983;51.114;13.788;2022-08-24T15:45:32;99751.94;;;34.34;46.88
19672;BME280;9983;51.114;13.788;2022-08-24T15:50:41;99745.38;;;35.16;45.55
19672;BME280;9983;51.114;13.788;2022-08-24T15:55:45;99745.06;;;34.23;47.30
19672;BME280;9983;51.114;13.788;2022-08-24T16:00:46;99747.97;;;33.70;48.42
19672;BME280;9983;51.114;13.788;2022-08-24T16:06:17;99733.56;;;34.16;47.57
19672;BME280;9983;51.114;13.788;2022-08-24T16:11:28;99735.63;;;34.76;46.33
19672;BME280;9983;51.114;13.788;2022-08-24T16:16:34;99732.66;;;34.98;45.38
19672;BME280;9983;51.114;13.788;2022-08-24T16:31:49;99730.81;;;34.24;47.25
19672;BME280;9983;51.114;13.788;2022-08-24T16:36:50;99737.22;;;34.59;45.48
19672;BME280;9983;51.114;13.788;2022-08-24T16:41:57;99731.00;;;34.28;47.18
19672;BME280;9983;51.114;13.788;2022-08-24T16:46:59;99735.88;;;33.35;48.78
19672;BME280;9983;51.114;13.788;2022-08-24T16:51:59;99728.66;;;32.45;50.50
19672;BME280;9983;51.114;13.788;2022-08-24T16:57:10;99736.97;;;31.67;54.07
19672;BME280;9983;51.114;13.788;2022-08-24T17:02:12;99731.34;;;31.13;55.52
19672;BME280;9983;51.114;13.788;2022-08-24T17:07:16;99724.22;;;30.37;59.43
19672;BME280;9983;51.114;13.788;2022-08-24T17:12:17;99736.59;;;30.02;59.87
19672;BME280;9983;51.114;13.788;2022-08-24T17:17:19;99753.09;;;29.59;62.42
19672;BME280;9983;51.114;13.788;2022-08-24T17:22:24;99743.28;;;29.14;63.62
19672;BME280;9983;51.114;13.788;2022-08-24T17:27:29;99740.28;;;28.82;66.01
19672;BME280;9983;51.114;13.788;2022-08-24T17:32:30;99746.66;;;28.33;69.51
19672;BME280;9983;51.114;13.788;2022-08-24T17:37:31;99752.22;;;28.23;70.45
19672;BME280;9983;51.114;13.788;2022-08-24T17:42:31;99760.06;;;27.90;73.32
19672;BME280;9983;51.114;13.788;2022-08-24T17:47:31;99770.06;;;27.76;73.46
19672;BME280;9983;51.114;13.788;2022-08-24T17:52:32;99764.63;;;26.95;79.69
19672;BME280;9983;51.114;13.788;2022-08-24T17:57:32;99764.84;;;26.48;86.03
19672;BME280;9983;51.114;13.788;2022-08-24T18:02:33;99759.66;;;25.84;90.60
19672;BME280;9983;51.114;13.788;2022-08-24T18:07:34;99771.56;;;26.10;91.52
19672;BME280;9983;51.114;13.788;2022-08-24T18:12:34;99763.84;;;25.50;93.48
19672;BME280;9983;51.114;13.788;2022-08-24T18:17:38;99772.19;;;24.91;97.19
19672;BME280;9983;51.114;13.788;2022-08-24T18:22:39;99777.66;;;25.28;94.96
19672;BME280;9983;51.114;13.788;2022-08-24T18:27:44;99783.78;;;25.35;93.06
19672;BME280;9983;51.114;13.788;2022-08-24T18:32:45;99798.34;;;25.04;96.71
19672;BME280;9983;51.114;13.788;2022-08-24T18:37:45;99789.66;;;24.85;99.85
19672;BME280;9983;51.114;13.788;2022-08-24T18:42:45;99794.94;;;24.91;97.89
19672;BME280;9983;51.114;13.788;2022-08-24T18:47:47;99805.06;;;24.64;100.00
19672;BME280;9983;51.114;13.788;2022-08-24T18:52:47;99810.97;;;24.51;100.00
19672;BME280;9983;51.114;13.788;2022-08-24T18:57:47;99804.75;;;24.61;100.00
19672;BME280;9983;51.114;13.788;2022-08-24T19:02:48;99811.38;;;24.38;100.00
19672;BME280;9983;51.114;13.788;2022-08-24T19:07:50;99814.03;;;23.89;100.00
19672;BME280;9983;51.114;13.788;2022-08-24T19:12:56;99811.34;;;23.94;100.00
19672;BME280;9983;51.114;13.788;2022-08-24T19:17:57;99806.09;;;23.71;100.00
19672;BME280;9983;51.114;13.788;2022-08-24T19:23:05;99814.75;;;23.63;100.00
19672;BME280;9983;51.114;13.788;2022-08-24T19:28:06;99819.56;;;23.22;100.00
19672;BME280;9983;51.114;13.788;2022-08-24T19:33:06;99810.44;;;23.33;100.00
19672;BME280;9983;51.114;13.788;2022-08-24T19:38:07;99816.00;;;23.38;100.00
19672;BME280;9983;51.114;13.788;2022-08-24T19:43:07;99809.38;;;22.73;100.00
19672;BME280;9983;51.114;13.788;2022-08-24T19:48:09;99807.53;;;22.61;100.00
19672;BME280;9983;51.114;13.788;2022-08-24T19:53:10;99814.56;;;22.86;100.00
19672;BME280;9983;51.114;13.788;2022-08-24T19:58:29;99816.34;;;22.92;100.00
19672;BME280;9983;51.114;13.788;2022-08-24T20:03:34;99815.56;;;22.96;100.00
19672;BME280;9983;51.114;13.788;2022-08-24T20:08:34;99809.38;;;22.73;100.00
19672;BME280;9983;51.114;13.788;2022-08-24T20:13:35;99815.91;;;22.83;100.00
19672;BME280;9983;51.114;13.788;2022-08-24T20:18:35;99817.50;;;22.39;100.00
19672;BME280;9983;51.114;13.788;2022-08-24T20:23:36;99816.81;;;22.60;100.00
19672;BME280;9983;51.114;13.788;2022-08-24T20:28:42;99818.41;;;22.73;100.00
19672;BME280;9983;51.114;13.788;2022-08-24T20:33:45;99817.63;;;22.61;100.00
19672;BME280;9983;51.114;13.788;2022-08-24T20:38:45;99815.94;;;22.71;100.00
19672;BME280;9983;51.114;13.788;2022-08-24T20:43:46;99818.41;;;22.45;100.00
19672;BME280;9983;51.114;13.788;2022-08-24T20:48:47;99816.91;;;22.37;100.00
19672;BME280;9983;51.114;13.788;2022-08-24T20:53:47;99804.44;;;21.89;100.00
19672;BME280;9983;51.114;13.788;2022-08-24T20:58:47;99799.94;;;22.07;100.00
19672;BME280;9983;51.114;13.788;2022-08-24T21:03:48;99804.72;;;22.28;100.00
19672;BME280;9983;51.114;13.788;2022-08-24T21:08:50;99808.03;;;22.30;100.00
19672;BME280;9983;51.114;13.788;2022-08-24T21:13:51;99805.59;;;22.17;100.00
19672;BME280;9983;51.114;13.788;2022-08-24T21:18:51;99811.81;;;21.77;100.00
19672;BME280;9983;51.114;13.788;2022-08-24T21:23:52;99811.06;;;21.93;100.00
19672;BME280;9983;51.114;13.788;2022-08-24T21:28:53;99814.88;;;21.92;100.00
19672;BME280;9983;51.114;13.788;2022-08-24T21:33:55;99817.28;;;21.54;100.00
19672;BME280;9983;51.114;13.788;2022-08-24T21:39:15;99817.13;;;21.95;100.00
19672;BME280;9983;51.114;13.788;2022-08-24T21:44:15;99822.28;;;21.34;100.00
19672;BME280;9983;51.114;13.788;2022-08-24T21:49:16;99828.25;;;21.12;100.00
19672;BME280;9983;51.114;13.788;2022-08-24T21:54:16;99828.72;;;20.98;100.00
19672;BME280;9983;51.114;13.788;2022-08-24T21:59:17;99823.94;;;21.58;100.00
19672;BME280;9983;51.114;13.788;2022-08-24T22:04:17;99825.59;;;21.36;100.00
19672;BME280;9983;51.114;13.788;2022-08-24T22:09:18;99818.69;;;21.68;100.00
19672;BME280;9983;51.114;13.788;2022-08-24T22:14:20;99813.34;;;21.15;100.00
19672;BME280;9983;51.114;13.788;2022-08-24T22:19:21;99817.59;;;20.99;100.00
19672;BME280;9983;51.114;13.788;2022-08-24T22:24:21;99818.34;;;21.18;100.00
19672;BME280;9983;51.114;13.788;2022-08-24T22:29:21;99807.78;;;20.38;100.00
19672;BME280;9983;51.114;13.788;2022-08-24T22:34:22;99806.59;;;20.64;100.00
19672;BME280;9983;51.114;13.788;2022-08-24T22:39:22;99805.13;;;21.03;100.00
19672;BME280;9983;51.114;13.788;2022-08-24T22:44:22;99801.56;;;20.91;100.00
19672;BME280;9983;51.114;13.788;2022-08-24T22:49:33;99800.75;;;20.91;100.00
19672;BME280;9983;51.114;13.788;2022-08-24T22:54:34;99794.72;;;21.00;100.00
19672;BME280;9983;51.114;13.788;2022-08-24T22:59:37;99792.88;;;20.71;100.00
19672;BME280;9983;51.114;13.788;2022-08-24T23:04:40;99788.41;;;20.47;100.00
19672;BME280;9983;51.114;13.788;2022-08-24T23:09:42;99786.81;;;19.91;100.00
19672;BME280;9983;51.114;13.788;2022-08-24T23:14:42;99791.59;;;20.43;100.00
19672;BME280;9983;51.114;13.788;2022-08-24T23:19:43;99792.19;;;20.45;100.00
19672;BME280;9983;51.114;13.788;2022-08-24T23:24:59;99785.41;;;20.78;100.00
19672;BME280;9983;51.114;13.788;2022-08-24T23:30:00;99785.25;;;20.31;100.00
19672;BME280;9983;51.114;13.788;2022-08-24T23:35:01;99777.38;;;20.83;100.00
19672;BME280;9983;51.114;13.788;2022-08-24T23:40:02;99773.41;;;20.67;100.00
19672;BME280;9983;51.114;13.788;2022-08-24T23:45:03;99769.00;;;20.55;100.00
19672;BME280;9983;51.114;13.788;2022-08-24T23:50:04;99765.34;;;20.61;100.00
19672;BME280;9983;51.114;13.788;2022-08-24T23:55:05;99763.91;;;20.28;100.00
